sensor_id;sensor_type;location;lat;lon;timestamp;P1;durP1;ratioP1;P2;durP2;ratioP2
22201;SDS011;11266;51.522;6.302;2023-04-24T00:00:02;11.13;;;2.65;;
22201;SDS011;11266;51.522;6.302;2023-04-24T00:00:54;9.15;;;2.35;;
22201;SDS011;11266;51.522;6.302;2023-04-24T00:01:43;12.40;;;2.28;;
22201;SDS011;11266;51.522;6.302;2023-04-24T00:02:29;4.15;;;1.80;;
22201;SDS011;11266;51.522;6.302;2023-04-24T00:03:16;6.18;;;2.10;;
22201;SDS011;11266;51.522;6.302;2023-04-24T00:04:06;5.68;;;2.13;;
22201;SDS011;11266;51.522;6.302;2023-04-24T00:04:55;4.82;;;2.17;;
22201;SDS011;11266;51.522;6.302;2023-04-24T00:05:41;5.18;;;2.00;;
22201;SDS011;11266;51.522;6.302;2023-04-24T00:06:27;3.35;;;1.92;;
22201;SDS011;11266;51.522;6.302;2023-04-24T00:07:18;6.40;;;2.30;;
22201;SDS011;11266;51.522;6.302;2023-04-24T00:08:05;5.32;;;2.22;;
22201;SDS011;11266;51.522;6.302;2023-04-24T00:08:51;7.55;;;2.83;;
22201;SDS011;11266;51.522;6.302;2023-04-24T00:09:36;5.90;;;2.42;;
22201;SDS011;11266;51.522;6.302;2023-04-24T00:10:22;6.70;;;2.75;;
22201;SDS011;11266;51.522;6.302;2023-04-24T00:11:08;3.83;;;2.10;;
22201;SDS011;11266;51.522;6.302;2023-04-24T00:11:54;4.85;;;2.22;;
22201;SDS011;11266;51.522;6.302;2023-04-24T00:12:41;7.95;;;2.17;;
22201;SDS011;11266;51.522;6.302;2023-04-24T00:13:26;3.97;;;2.30;;
22201;SDS011;11266;51.522;6.302;2023-04-24T00:14:13;8.32;;;2.35;;
22201;SDS011;11266;51.522;6.302;2023-04-24T00:14:59;8.10;;;2.40;;
22201;SDS011;11266;51.522;6.302;2023-04-24T00:15:45;3.75;;;1.98;;
22201;SDS011;11266;51.522;6.302;2023-04-24T00:16:31;3.78;;;2.40;;
22201;SDS011;11266;51.522;6.302;2023-04-24T00:17:17;6.15;;;2.35;;
22201;SDS011;11266;51.522;6.302;2023-04-24T00:18:05;7.03;;;2.63;;
22201;SDS011;11266;51.522;6.302;2023-04-24T00:18:51;4.35;;;2.33;;
22201;SDS011;11266;51.522;6.302;2023-04-24T00:19:37;6.28;;;2.83;;
22201;SDS011;11266;51.522;6.302;2023-04-24T00:20:23;5.82;;;2.78;;
22201;SDS011;11266;51.522;6.302;2023-04-24T00:21:09;7.68;;;2.80;;
22201;SDS011;11266;51.522;6.302;2023-04-24T00:21:54;7.07;;;2.47;;
22201;SDS011;11266;51.522;6.302;2023-04-24T00:22:41;5.13;;;2.28;;
22201;SDS011;11266;51.522;6.302;2023-04-24T00:23:26;3.33;;;2.17;;
22201;SDS011;11266;51.522;6.302;2023-04-24T00:24:12;3.72;;;2.42;;
22201;SDS011;11266;51.522;6.302;2023-04-24T00:24:58;5.22;;;2.67;;
22201;SDS011;11266;51.522;6.302;2023-04-24T00:25:44;5.80;;;2.55;;
22201;SDS011;11266;51.522;6.302;2023-04-24T00:26:29;3.85;;;2.50;;
22201;SDS011;11266;51.522;6.302;2023-04-24T00:27:15;5.90;;;2.95;;
22201;SDS011;11266;51.522;6.302;2023-04-24T00:28:01;5.28;;;2.60;;
22201;SDS011;11266;51.522;6.302;2023-04-24T00:28:47;5.88;;;3.10;;
22201;SDS011;11266;51.522;6.302;2023-04-24T00:29:33;4.15;;;2.70;;
22201;SDS011;11266;51.522;6.302;2023-04-24T00:30:18;8.32;;;2.92;;
22201;SDS011;11266;51.522;6.302;2023-04-24T00:31:04;7.25;;;2.85;;
22201;SDS011;11266;51.522;6.302;2023-04-24T00:31:50;9.25;;;3.05;;
22201;SDS011;11266;51.522;6.302;2023-04-24T00:32:36;4.38;;;2.53;;
22201;SDS011;11266;51.522;6.302;2023-04-24T00:33:21;8.73;;;2.95;;
22201;SDS011;11266;51.522;6.302;2023-04-24T00:34:07;7.28;;;3.17;;
22201;SDS011;11266;51.522;6.302;2023-04-24T00:34:53;8.23;;;2.80;;
22201;SDS011;11266;51.522;6.302;2023-04-24T00:35:39;6.10;;;2.75;;
22201;SDS011;11266;51.522;6.302;2023-04-24T00:36:25;8.57;;;3.03;;
22201;SDS011;11266;51.522;6.302;2023-04-24T00:37:12;9.55;;;2.95;;
22201;SDS011;11266;51.522;6.302;2023-04-24T00:37:57;8.57;;;3.47;;
22201;SDS011;11266;51.522;6.302;2023-04-24T00:38:43;6.25;;;3.08;;
22201;SDS011;11266;51.522;6.302;2023-04-24T00:39:29;8.77;;;2.80;;
22201;SDS011;11266;51.522;6.302;2023-04-24T00:40:15;6.15;;;3.00;;
22201;SDS011;11266;51.522;6.302;2023-04-24T00:41:01;5.90;;;2.40;;
22201;SDS011;11266;51.522;6.302;2023-04-24T00:41:47;8.75;;;2.45;;
22201;SDS011;11266;51.522;6.302;2023-04-24T00:42:33;9.70;;;3.63;;
22201;SDS011;11266;51.522;6.302;2023-04-24T00:43:19;7.10;;;3.25;;
22201;SDS011;11266;51.522;6.302;2023-04-24T00:44:05;5.53;;;2.63;;
22201;SDS011;11266;51.522;6.302;2023-04-24T00:44:51;4.90;;;2.70;;
22201;SDS011;11266;51.522;6.302;2023-04-24T00:45:38;5.18;;;2.75;;
22201;SDS011;11266;51.522;6.302;2023-04-24T00:46:23;6.65;;;2.85;;
22201;SDS011;11266;51.522;6.302;2023-04-24T00:47:10;6.10;;;2.90;;
22201;SDS011;11266;51.522;6.302;2023-04-24T00:47:57;5.85;;;2.80;;
22201;SDS011;11266;51.522;6.302;2023-04-24T00:48:45;7.85;;;2.83;;
22201;SDS011;11266;51.522;6.302;2023-04-24T00:49:31;8.20;;;3.03;;
22201;SDS011;11266;51.522;6.302;2023-04-24T00:50:17;5.60;;;2.72;;
22201;SDS011;11266;51.522;6.302;2023-04-24T00:51:04;7.25;;;3.00;;
22201;SDS011;11266;51.522;6.302;2023-04-24T00:51:50;6.13;;;3.30;;
22201;SDS011;11266;51.522;6.302;2023-04-24T00:52:36;7.10;;;2.47;;
22201;SDS011;11266;51.522;6.302;2023-04-24T00:53:22;6.07;;;3.28;;
22201;SDS011;11266;51.522;6.302;2023-04-24T00:54:07;6.65;;;2.90;;
22201;SDS011;11266;51.522;6.302;2023-04-24T00:54:53;6.57;;;2.85;;
22201;SDS011;11266;51.522;6.302;2023-04-24T00:55:39;6.00;;;3.10;;
22201;SDS011;11266;51.522;6.302;2023-04-24T00:56:26;7.13;;;3.50;;
22201;SDS011;11266;51.522;6.302;2023-04-24T00:57:12;7.75;;;2.97;;
22201;SDS011;11266;51.522;6.302;2023-04-24T00:58:02;6.97;;;2.80;;
22201;SDS011;11266;51.522;6.302;2023-04-24T00:58:48;9.23;;;3.25;;
22201;SDS011;11266;51.522;6.302;2023-04-24T00:59:35;4.63;;;2.53;;
22201;SDS011;11266;51.522;6.302;2023-04-24T01:00:21;7.05;;;3.15;;
22201;SDS011;11266;51.522;6.302;2023-04-24T01:01:07;7.60;;;3.40;;
22201;SDS011;11266;51.522;6.302;2023-04-24T01:01:54;6.00;;;3.03;;
22201;SDS011;11266;51.522;6.302;2023-04-24T01:02:41;8.60;;;3.20;;
22201;SDS011;11266;51.522;6.302;2023-04-24T01:03:30;6.05;;;3.17;;
22201;SDS011;11266;51.522;6.302;2023-04-24T01:04:17;13.38;;;3.40;;
22201;SDS011;11266;51.522;6.302;2023-04-24T01:05:03;11.05;;;3.58;;
22201;SDS011;11266;51.522;6.302;2023-04-24T01:05:49;5.75;;;3.00;;
22201;SDS011;11266;51.522;6.302;2023-04-24T01:06:36;6.18;;;3.17;;
22201;SDS011;11266;51.522;6.302;2023-04-24T01:07:23;11.45;;;3.63;;
22201;SDS011;11266;51.522;6.302;2023-04-24T01:08:10;6.68;;;3.35;;
22201;SDS011;11266;51.522;6.302;2023-04-24T01:08:57;5.35;;;3.53;;
22201;SDS011;11266;51.522;6.302;2023-04-24T01:09:44;9.27;;;3.78;;
22201;SDS011;11266;51.522;6.302;2023-04-24T01:10:33;6.22;;;3.35;;
22201;SDS011;11266;51.522;6.302;2023-04-24T01:11:21;6.97;;;3.85;;
22201;SDS011;11266;51.522;6.302;2023-04-24T01:12:07;11.23;;;3.63;;
22201;SDS011;11266;51.522;6.302;2023-04-24T01:12:53;5.97;;;3.50;;
22201;SDS011;11266;51.522;6.302;2023-04-24T01:13:39;8.32;;;4.00;;
22201;SDS011;11266;51.522;6.302;2023-04-24T01:14:25;9.07;;;3.67;;
22201;SDS011;11266;51.522;6.302;2023-04-24T01:15:11;10.05;;;3.58;;
22201;SDS011;11266;51.522;6.302;2023-04-24T01:15:57;7.90;;;3.60;;
22201;SDS011;11266;51.522;6.302;2023-04-24T01:16:43;7.53;;;3.95;;
22201;SDS011;11266;51.522;6.302;2023-04-24T01:17:29;8.57;;;4.07;;
22201;SDS011;11266;51.522;6.302;2023-04-24T01:18:16;9.73;;;5.05;;
22201;SDS011;11266;51.522;6.302;2023-04-24T01:19:02;7.18;;;3.60;;
22201;SDS011;11266;51.522;6.302;2023-04-24T01:19:47;8.60;;;3.50;;
22201;SDS011;11266;51.522;6.302;2023-04-24T01:20:33;6.78;;;3.70;;
22201;SDS011;11266;51.522;6.302;2023-04-24T01:21:20;8.18;;;3.50;;
22201;SDS011;11266;51.522;6.302;2023-04-24T01:22:10;4.90;;;2.90;;
22201;SDS011;11266;51.522;6.302;2023-04-24T01:22:58;6.68;;;3.58;;
22201;SDS011;11266;51.522;6.302;2023-04-24T01:23:44;9.65;;;4.40;;
22201;SDS011;11266;51.522;6.302;2023-04-24T01:24:30;7.78;;;4.07;;
22201;SDS011;11266;51.522;6.302;2023-04-24T01:25:16;7.13;;;4.20;;
22201;SDS011;11266;51.522;6.302;2023-04-24T01:26:02;8.45;;;4.10;;
22201;SDS011;11266;51.522;6.302;2023-04-24T01:26:48;9.27;;;3.97;;
22201;SDS011;11266;51.522;6.302;2023-04-24T01:27:33;8.00;;;3.58;;
22201;SDS011;11266;51.522;6.302;2023-04-24T01:28:20;6.18;;;3.60;;
22201;SDS011;11266;51.522;6.302;2023-04-24T01:29:06;11.95;;;4.13;;
22201;SDS011;11266;51.522;6.302;2023-04-24T01:29:52;11.15;;;4.30;;
22201;SDS011;11266;51.522;6.302;2023-04-24T01:30:38;7.03;;;4.07;;
22201;SDS011;11266;51.522;6.302;2023-04-24T01:31:24;14.55;;;5.55;;
22201;SDS011;11266;51.522;6.302;2023-04-24T01:32:10;8.10;;;4.22;;
22201;SDS011;11266;51.522;6.302;2023-04-24T01:32:56;7.22;;;3.95;;
22201;SDS011;11266;51.522;6.302;2023-04-24T01:33:43;7.57;;;4.38;;
22201;SDS011;11266;51.522;6.302;2023-04-24T01:34:29;15.13;;;4.70;;
22201;SDS011;11266;51.522;6.302;2023-04-24T01:35:15;8.50;;;4.32;;
22201;SDS011;11266;51.522;6.302;2023-04-24T01:36:01;9.98;;;3.80;;
22201;SDS011;11266;51.522;6.302;2023-04-24T01:36:47;7.57;;;3.58;;
22201;SDS011;11266;51.522;6.302;2023-04-24T01:37:33;9.13;;;4.35;;
22201;SDS011;11266;51.522;6.302;2023-04-24T01:38:19;11.60;;;4.40;;
22201;SDS011;11266;51.522;6.302;2023-04-24T01:39:05;7.70;;;4.07;;
22201;SDS011;11266;51.522;6.302;2023-04-24T01:39:51;9.50;;;4.57;;
22201;SDS011;11266;51.522;6.302;2023-04-24T01:40:37;7.53;;;3.88;;
22201;SDS011;11266;51.522;6.302;2023-04-24T01:41:23;6.60;;;4.07;;
22201;SDS011;11266;51.522;6.302;2023-04-24T01:42:10;16.25;;;5.50;;
22201;SDS011;11266;51.522;6.302;2023-04-24T01:42:57;13.45;;;4.93;;
22201;SDS011;11266;51.522;6.302;2023-04-24T01:43:43;7.03;;;3.97;;
22201;SDS011;11266;51.522;6.302;2023-04-24T01:44:29;11.88;;;4.50;;
22201;SDS011;11266;51.522;6.302;2023-04-24T01:45:16;6.80;;;4.13;;
22201;SDS011;11266;51.522;6.302;2023-04-24T01:46:01;8.95;;;4.32;;
22201;SDS011;11266;51.522;6.302;2023-04-24T01:46:47;8.32;;;4.40;;
22201;SDS011;11266;51.522;6.302;2023-04-24T01:47:33;8.10;;;4.10;;
22201;SDS011;11266;51.522;6.302;2023-04-24T01:48:19;11.30;;;4.90;;
22201;SDS011;11266;51.522;6.302;2023-04-24T01:49:05;8.45;;;4.70;;
22201;SDS011;11266;51.522;6.302;2023-04-24T01:49:51;8.52;;;4.43;;
22201;SDS011;11266;51.522;6.302;2023-04-24T01:50:37;9.50;;;4.43;;
22201;SDS011;11266;51.522;6.302;2023-04-24T01:51:23;9.85;;;4.85;;
22201;SDS011;11266;51.522;6.302;2023-04-24T01:52:09;9.15;;;4.00;;
22201;SDS011;11266;51.522;6.302;2023-04-24T01:52:54;12.75;;;4.82;;
22201;SDS011;11266;51.522;6.302;2023-04-24T01:53:40;8.10;;;4.95;;
22201;SDS011;11266;51.522;6.302;2023-04-24T01:54:26;6.68;;;4.35;;
22201;SDS011;11266;51.522;6.302;2023-04-24T01:55:12;9.88;;;4.82;;
22201;SDS011;11266;51.522;6.302;2023-04-24T01:55:58;14.15;;;5.10;;
22201;SDS011;11266;51.522;6.302;2023-04-24T01:56:43;8.40;;;5.15;;
22201;SDS011;11266;51.522;6.302;2023-04-24T01:57:30;13.02;;;5.05;;
22201;SDS011;11266;51.522;6.302;2023-04-24T01:58:16;12.93;;;5.57;;
22201;SDS011;11266;51.522;6.302;2023-04-24T01:59:03;6.85;;;4.78;;
22201;SDS011;11266;51.522;6.302;2023-04-24T01:59:49;11.00;;;5.32;;
22201;SDS011;11266;51.522;6.302;2023-04-24T02:00:35;9.65;;;5.22;;
22201;SDS011;11266;51.522;6.302;2023-04-24T02:01:22;9.77;;;5.15;;
22201;SDS011;11266;51.522;6.302;2023-04-24T02:02:09;9.68;;;5.00;;
22201;SDS011;11266;51.522;6.302;2023-04-24T02:02:55;12.60;;;5.50;;
22201;SDS011;11266;51.522;6.302;2023-04-24T02:03:40;12.70;;;5.40;;
22201;SDS011;11266;51.522;6.302;2023-04-24T02:04:26;9.25;;;4.85;;
22201;SDS011;11266;51.522;6.302;2023-04-24T02:05:12;9.07;;;5.15;;
22201;SDS011;11266;51.522;6.302;2023-04-24T02:05:58;15.18;;;5.63;;
22201;SDS011;11266;51.522;6.302;2023-04-24T02:06:43;14.63;;;5.45;;
22201;SDS011;11266;51.522;6.302;2023-04-24T02:07:29;11.60;;;6.03;;
22201;SDS011;11266;51.522;6.302;2023-04-24T02:08:15;10.88;;;5.93;;
22201;SDS011;11266;51.522;6.302;2023-04-24T02:09:01;9.50;;;5.28;;
22201;SDS011;11266;51.522;6.302;2023-04-24T02:09:48;11.70;;;5.57;;
22201;SDS011;11266;51.522;6.302;2023-04-24T02:10:34;8.80;;;5.57;;
22201;SDS011;11266;51.522;6.302;2023-04-24T02:11:19;11.20;;;5.70;;
22201;SDS011;11266;51.522;6.302;2023-04-24T02:12:05;10.82;;;5.82;;
22201;SDS011;11266;51.522;6.302;2023-04-24T02:12:51;13.00;;;5.90;;
22201;SDS011;11266;51.522;6.302;2023-04-24T02:13:37;13.38;;;6.05;;
22201;SDS011;11266;51.522;6.302;2023-04-24T02:14:22;10.35;;;6.30;;
22201;SDS011;11266;51.522;6.302;2023-04-24T02:15:08;15.18;;;6.63;;
22201;SDS011;11266;51.522;6.302;2023-04-24T02:15:54;14.40;;;6.82;;
22201;SDS011;11266;51.522;6.302;2023-04-24T02:16:40;10.40;;;6.22;;
22201;SDS011;11266;51.522;6.302;2023-04-24T02:17:26;13.18;;;6.32;;
22201;SDS011;11266;51.522;6.302;2023-04-24T02:18:12;9.55;;;6.32;;
22201;SDS011;11266;51.522;6.302;2023-04-24T02:18:57;10.63;;;6.15;;
22201;SDS011;11266;51.522;6.302;2023-04-24T02:19:43;11.60;;;6.55;;
22201;SDS011;11266;51.522;6.302;2023-04-24T02:20:29;8.77;;;5.72;;
22201;SDS011;11266;51.522;6.302;2023-04-24T02:21:15;15.07;;;6.07;;
22201;SDS011;11266;51.522;6.302;2023-04-24T02:22:01;10.57;;;6.18;;
22201;SDS011;11266;51.522;6.302;2023-04-24T02:22:46;8.65;;;6.07;;
22201;SDS011;11266;51.522;6.302;2023-04-24T02:23:32;12.63;;;6.10;;
22201;SDS011;11266;51.522;6.302;2023-04-24T02:24:18;16.98;;;7.10;;
22201;SDS011;11266;51.522;6.302;2023-04-24T02:25:04;9.95;;;6.07;;
22201;SDS011;11266;51.522;6.302;2023-04-24T02:25:50;13.38;;;6.15;;
22201;SDS011;11266;51.522;6.302;2023-04-24T02:26:38;10.95;;;6.22;;
22201;SDS011;11266;51.522;6.302;2023-04-24T02:27:23;11.35;;;5.65;;
22201;SDS011;11266;51.522;6.302;2023-04-24T02:28:09;10.98;;;6.13;;
22201;SDS011;11266;51.522;6.302;2023-04-24T02:28:55;14.43;;;6.65;;
22201;SDS011;11266;51.522;6.302;2023-04-24T02:29:41;11.40;;;6.43;;
22201;SDS011;11266;51.522;6.302;2023-04-24T02:30:26;12.93;;;6.85;;
22201;SDS011;11266;51.522;6.302;2023-04-24T02:31:12;12.73;;;6.40;;
22201;SDS011;11266;51.522;6.302;2023-04-24T02:31:58;13.98;;;6.93;;
22201;SDS011;11266;51.522;6.302;2023-04-24T02:32:44;10.98;;;5.90;;
22201;SDS011;11266;51.522;6.302;2023-04-24T02:33:30;11.70;;;6.13;;
22201;SDS011;11266;51.522;6.302;2023-04-24T02:34:15;8.68;;;5.45;;
22201;SDS011;11266;51.522;6.302;2023-04-24T02:35:01;13.30;;;6.55;;
22201;SDS011;11266;51.522;6.302;2023-04-24T02:35:47;13.70;;;6.68;;
22201;SDS011;11266;51.522;6.302;2023-04-24T02:36:33;14.73;;;6.28;;
22201;SDS011;11266;51.522;6.302;2023-04-24T02:37:18;9.38;;;6.40;;
22201;SDS011;11266;51.522;6.302;2023-04-24T02:38:04;13.73;;;6.53;;
22201;SDS011;11266;51.522;6.302;2023-04-24T02:38:50;9.80;;;6.28;;
22201;SDS011;11266;51.522;6.302;2023-04-24T02:39:36;12.32;;;6.78;;
22201;SDS011;11266;51.522;6.302;2023-04-24T02:40:22;10.98;;;6.53;;
22201;SDS011;11266;51.522;6.302;2023-04-24T02:41:07;13.27;;;7.03;;
22201;SDS011;11266;51.522;6.302;2023-04-24T02:41:53;13.65;;;7.22;;
22201;SDS011;11266;51.522;6.302;2023-04-24T02:42:39;19.67;;;7.50;;
22201;SDS011;11266;51.522;6.302;2023-04-24T02:43:25;9.70;;;6.50;;
22201;SDS011;11266;51.522;6.302;2023-04-24T02:44:10;15.90;;;7.13;;
22201;SDS011;11266;51.522;6.302;2023-04-24T02:44:56;11.27;;;6.93;;
22201;SDS011;11266;51.522;6.302;2023-04-24T02:45:42;17.30;;;8.35;;
22201;SDS011;11266;51.522;6.302;2023-04-24T02:46:28;16.30;;;7.93;;
22201;SDS011;11266;51.522;6.302;2023-04-24T02:47:13;13.73;;;6.43;;
22201;SDS011;11266;51.522;6.302;2023-04-24T02:47:59;12.85;;;7.78;;
22201;SDS011;11266;51.522;6.302;2023-04-24T02:48:45;13.13;;;7.78;;
22201;SDS011;11266;51.522;6.302;2023-04-24T02:49:31;14.90;;;8.20;;
22201;SDS011;11266;51.522;6.302;2023-04-24T02:50:16;13.55;;;7.32;;
22201;SDS011;11266;51.522;6.302;2023-04-24T02:51:02;14.02;;;7.50;;
22201;SDS011;11266;51.522;6.302;2023-04-24T02:51:48;15.77;;;7.80;;
22201;SDS011;11266;51.522;6.302;2023-04-24T02:52:34;18.98;;;7.55;;
22201;SDS011;11266;51.522;6.302;2023-04-24T02:53:20;11.55;;;6.75;;
22201;SDS011;11266;51.522;6.302;2023-04-24T02:54:06;14.45;;;7.20;;
22201;SDS011;11266;51.522;6.302;2023-04-24T02:54:55;12.55;;;7.20;;
22201;SDS011;11266;51.522;6.302;2023-04-24T02:55:41;13.13;;;7.18;;
22201;SDS011;11266;51.522;6.302;2023-04-24T02:56:27;12.38;;;6.95;;
22201;SDS011;11266;51.522;6.302;2023-04-24T02:57:13;11.38;;;6.68;;
22201;SDS011;11266;51.522;6.302;2023-04-24T02:57:58;14.95;;;7.10;;
22201;SDS011;11266;51.522;6.302;2023-04-24T02:58:45;13.02;;;7.80;;
22201;SDS011;11266;51.522;6.302;2023-04-24T02:59:30;13.07;;;7.10;;
22201;SDS011;11266;51.522;6.302;2023-04-24T03:00:16;13.70;;;7.35;;
22201;SDS011;11266;51.522;6.302;2023-04-24T03:01:02;14.70;;;7.45;;
22201;SDS011;11266;51.522;6.302;2023-04-24T03:01:48;12.88;;;6.93;;
22201;SDS011;11266;51.522;6.302;2023-04-24T03:02:34;14.52;;;7.63;;
22201;SDS011;11266;51.522;6.302;2023-04-24T03:03:20;14.07;;;7.22;;
22201;SDS011;11266;51.522;6.302;2023-04-24T03:04:05;12.68;;;7.45;;
22201;SDS011;11266;51.522;6.302;2023-04-24T03:04:51;14.38;;;7.97;;
22201;SDS011;11266;51.522;6.302;2023-04-24T03:05:37;18.38;;;9.38;;
22201;SDS011;11266;51.522;6.302;2023-04-24T03:06:23;10.48;;;7.75;;
22201;SDS011;11266;51.522;6.302;2023-04-24T03:07:09;18.08;;;7.68;;
22201;SDS011;11266;51.522;6.302;2023-04-24T03:07:55;14.52;;;7.15;;
22201;SDS011;11266;51.522;6.302;2023-04-24T03:08:41;15.50;;;7.53;;
22201;SDS011;11266;51.522;6.302;2023-04-24T03:09:26;11.98;;;7.53;;
22201;SDS011;11266;51.522;6.302;2023-04-24T03:10:12;16.20;;;7.90;;
22201;SDS011;11266;51.522;6.302;2023-04-24T03:10:58;17.55;;;7.70;;
22201;SDS011;11266;51.522;6.302;2023-04-24T03:11:44;12.43;;;7.50;;
22201;SDS011;11266;51.522;6.302;2023-04-24T03:12:30;17.80;;;7.60;;
22201;SDS011;11266;51.522;6.302;2023-04-24T03:13:16;14.18;;;7.90;;
22201;SDS011;11266;51.522;6.302;2023-04-24T03:14:01;14.20;;;7.30;;
22201;SDS011;11266;51.522;6.302;2023-04-24T03:14:47;13.93;;;7.80;;
22201;SDS011;11266;51.522;6.302;2023-04-24T03:15:33;14.65;;;8.30;;
22201;SDS011;11266;51.522;6.302;2023-04-24T03:16:19;13.18;;;7.15;;
22201;SDS011;11266;51.522;6.302;2023-04-24T03:17:05;11.38;;;6.68;;
22201;SDS011;11266;51.522;6.302;2023-04-24T03:17:50;11.93;;;7.45;;
22201;SDS011;11266;51.522;6.302;2023-04-24T03:18:37;14.98;;;7.63;;
22201;SDS011;11266;51.522;6.302;2023-04-24T03:19:22;13.07;;;7.32;;
22201;SDS011;11266;51.522;6.302;2023-04-24T03:20:08;11.68;;;7.70;;
22201;SDS011;11266;51.522;6.302;2023-04-24T03:20:54;13.90;;;7.22;;
22201;SDS011;11266;51.522;6.302;2023-04-24T03:21:40;15.75;;;7.18;;
22201;SDS011;11266;51.522;6.302;2023-04-24T03:22:26;14.38;;;7.10;;
22201;SDS011;11266;51.522;6.302;2023-04-24T03:23:12;18.02;;;7.78;;
22201;SDS011;11266;51.522;6.302;2023-04-24T03:23:57;13.93;;;7.70;;
22201;SDS011;11266;51.522;6.302;2023-04-24T03:24:44;11.10;;;7.05;;
22201;SDS011;11266;51.522;6.302;2023-04-24T03:25:31;12.60;;;6.97;;
22201;SDS011;11266;51.522;6.302;2023-04-24T03:26:17;17.20;;;7.65;;
22201;SDS011;11266;51.522;6.302;2023-04-24T03:27:03;18.15;;;8.18;;
22201;SDS011;11266;51.522;6.302;2023-04-24T03:27:48;13.30;;;7.78;;
22201;SDS011;11266;51.522;6.302;2023-04-24T03:28:34;13.05;;;6.72;;
22201;SDS011;11266;51.522;6.302;2023-04-24T03:29:20;15.50;;;8.00;;
22201;SDS011;11266;51.522;6.302;2023-04-24T03:30:06;15.38;;;7.97;;
22201;SDS011;11266;51.522;6.302;2023-04-24T03:30:53;16.13;;;9.25;;
22201;SDS011;11266;51.522;6.302;2023-04-24T03:31:38;10.80;;;7.38;;
22201;SDS011;11266;51.522;6.302;2023-04-24T03:32:24;9.77;;;6.88;;
22201;SDS011;11266;51.522;6.302;2023-04-24T03:33:10;12.10;;;7.22;;
22201;SDS011;11266;51.522;6.302;2023-04-24T03:33:56;10.60;;;7.07;;
22201;SDS011;11266;51.522;6.302;2023-04-24T03:34:42;14.15;;;7.53;;
22201;SDS011;11266;51.522;6.302;2023-04-24T03:35:28;11.98;;;7.50;;
22201;SDS011;11266;51.522;6.302;2023-04-24T03:36:14;14.93;;;7.40;;
22201;SDS011;11266;51.522;6.302;2023-04-24T03:37:00;16.17;;;7.68;;
22201;SDS011;11266;51.522;6.302;2023-04-24T03:37:45;13.10;;;6.75;;
22201;SDS011;11266;51.522;6.302;2023-04-24T03:38:31;11.15;;;6.45;;
22201;SDS011;11266;51.522;6.302;2023-04-24T03:39:17;13.50;;;7.30;;
22201;SDS011;11266;51.522;6.302;2023-04-24T03:40:03;9.82;;;6.65;;
22201;SDS011;11266;51.522;6.302;2023-04-24T03:40:50;10.82;;;7.25;;
22201;SDS011;11266;51.522;6.302;2023-04-24T03:41:36;17.52;;;7.75;;
22201;SDS011;11266;51.522;6.302;2023-04-24T03:42:22;13.38;;;7.38;;
22201;SDS011;11266;51.522;6.302;2023-04-24T03:43:08;16.50;;;7.80;;
22201;SDS011;11266;51.522;6.302;2023-04-24T03:43:54;10.95;;;6.88;;
22201;SDS011;11266;51.522;6.302;2023-04-24T03:44:40;12.85;;;7.00;;
22201;SDS011;11266;51.522;6.302;2023-04-24T03:45:25;14.55;;;7.38;;
22201;SDS011;11266;51.522;6.302;2023-04-24T03:46:11;13.02;;;6.90;;
22201;SDS011;11266;51.522;6.302;2023-04-24T03:46:58;16.60;;;7.45;;
22201;SDS011;11266;51.522;6.302;2023-04-24T03:47:44;11.75;;;6.53;;
22201;SDS011;11266;51.522;6.302;2023-04-24T03:48:30;11.27;;;6.80;;
22201;SDS011;11266;51.522;6.302;2023-04-24T03:49:15;12.05;;;7.38;;
22201;SDS011;11266;51.522;6.302;2023-04-24T03:50:01;13.00;;;8.25;;
22201;SDS011;11266;51.522;6.302;2023-04-24T03:50:47;15.15;;;7.05;;
22201;SDS011;11266;51.522;6.302;2023-04-24T03:51:33;14.32;;;7.20;;
22201;SDS011;11266;51.522;6.302;2023-04-24T03:52:19;12.30;;;7.15;;
22201;SDS011;11266;51.522;6.302;2023-04-24T03:53:04;10.02;;;7.13;;
22201;SDS011;11266;51.522;6.302;2023-04-24T03:53:50;10.18;;;6.55;;
22201;SDS011;11266;51.522;6.302;2023-04-24T03:54:36;10.05;;;6.43;;
22201;SDS011;11266;51.522;6.302;2023-04-24T03:55:22;10.63;;;6.53;;
22201;SDS011;11266;51.522;6.302;2023-04-24T03:56:08;11.35;;;7.22;;
22201;SDS011;11266;51.522;6.302;2023-04-24T03:56:54;14.43;;;6.78;;
22201;SDS011;11266;51.522;6.302;2023-04-24T03:57:40;10.98;;;6.50;;
22201;SDS011;11266;51.522;6.302;2023-04-24T03:58:26;15.77;;;6.88;;
22201;SDS011;11266;51.522;6.302;2023-04-24T03:59:11;11.90;;;6.57;;
22201;SDS011;11266;51.522;6.302;2023-04-24T03:59:58;15.45;;;8.00;;
22201;SDS011;11266;51.522;6.302;2023-04-24T04:00:44;10.90;;;6.80;;
22201;SDS011;11266;51.522;6.302;2023-04-24T04:01:32;10.50;;;6.70;;
22201;SDS011;11266;51.522;6.302;2023-04-24T04:02:22;13.38;;;6.95;;
22201;SDS011;11266;51.522;6.302;2023-04-24T04:03:07;11.80;;;7.47;;
22201;SDS011;11266;51.522;6.302;2023-04-24T04:03:53;14.60;;;7.63;;
22201;SDS011;11266;51.522;6.302;2023-04-24T04:04:39;13.25;;;6.35;;
22201;SDS011;11266;51.522;6.302;2023-04-24T04:05:25;22.05;;;7.00;;
22201;SDS011;11266;51.522;6.302;2023-04-24T04:06:11;16.38;;;6.43;;
22201;SDS011;11266;51.522;6.302;2023-04-24T04:06:58;12.88;;;6.43;;
22201;SDS011;11266;51.522;6.302;2023-04-24T04:07:46;15.25;;;6.60;;
22201;SDS011;11266;51.522;6.302;2023-04-24T04:08:32;11.30;;;6.47;;
22201;SDS011;11266;51.522;6.302;2023-04-24T04:09:17;14.98;;;7.22;;
22201;SDS011;11266;51.522;6.302;2023-04-24T04:10:03;12.50;;;6.65;;
22201;SDS011;11266;51.522;6.302;2023-04-24T04:10:52;11.18;;;6.22;;
22201;SDS011;11266;51.522;6.302;2023-04-24T04:11:37;10.85;;;6.45;;
22201;SDS011;11266;51.522;6.302;2023-04-24T04:12:23;13.75;;;6.07;;
22201;SDS011;11266;51.522;6.302;2023-04-24T04:13:09;10.50;;;6.53;;
22201;SDS011;11266;51.522;6.302;2023-04-24T04:13:55;11.73;;;6.68;;
22201;SDS011;11266;51.522;6.302;2023-04-24T04:14:41;12.75;;;6.25;;
22201;SDS011;11266;51.522;6.302;2023-04-24T04:15:27;14.73;;;7.18;;
22201;SDS011;11266;51.522;6.302;2023-04-24T04:16:13;10.73;;;6.15;;
22201;SDS011;11266;51.522;6.302;2023-04-24T04:17:03;12.02;;;6.50;;
22201;SDS011;11266;51.522;6.302;2023-04-24T04:17:49;12.65;;;7.07;;
22201;SDS011;11266;51.522;6.302;2023-04-24T04:18:35;13.20;;;6.53;;
22201;SDS011;11266;51.522;6.302;2023-04-24T04:19:21;14.15;;;7.53;;
22201;SDS011;11266;51.522;6.302;2023-04-24T04:20:07;12.32;;;6.93;;
22201;SDS011;11266;51.522;6.302;2023-04-24T04:20:55;13.68;;;6.47;;
22201;SDS011;11266;51.522;6.302;2023-04-24T04:21:41;17.13;;;7.10;;
22201;SDS011;11266;51.522;6.302;2023-04-24T04:22:27;12.95;;;6.50;;
22201;SDS011;11266;51.522;6.302;2023-04-24T04:23:13;11.10;;;6.13;;
22201;SDS011;11266;51.522;6.302;2023-04-24T04:23:59;12.32;;;6.30;;
22201;SDS011;11266;51.522;6.302;2023-04-24T04:24:44;10.20;;;6.13;;
22201;SDS011;11266;51.522;6.302;2023-04-24T04:25:31;13.30;;;6.47;;
22201;SDS011;11266;51.522;6.302;2023-04-24T04:26:17;9.55;;;5.90;;
22201;SDS011;11266;51.522;6.302;2023-04-24T04:27:04;12.93;;;6.68;;
22201;SDS011;11266;51.522;6.302;2023-04-24T04:27:50;10.27;;;6.03;;
22201;SDS011;11266;51.522;6.302;2023-04-24T04:28:37;9.25;;;5.68;;
22201;SDS011;11266;51.522;6.302;2023-04-24T04:29:26;10.93;;;6.22;;
22201;SDS011;11266;51.522;6.302;2023-04-24T04:30:12;11.20;;;6.10;;
22201;SDS011;11266;51.522;6.302;2023-04-24T04:30:57;12.07;;;6.63;;
22201;SDS011;11266;51.522;6.302;2023-04-24T04:31:44;12.63;;;5.93;;
22201;SDS011;11266;51.522;6.302;2023-04-24T04:32:33;10.73;;;5.93;;
22201;SDS011;11266;51.522;6.302;2023-04-24T04:33:20;11.00;;;6.03;;
22201;SDS011;11266;51.522;6.302;2023-04-24T04:34:06;11.50;;;5.90;;
22201;SDS011;11266;51.522;6.302;2023-04-24T04:34:52;12.68;;;5.93;;
22201;SDS011;11266;51.522;6.302;2023-04-24T04:35:38;10.02;;;6.05;;